sensor_id;sensor_type;location;lat;lon;timestamp;pressure;altitude;pressure_sealevel;temperature;humidity
47811;BME280;33575;52.600;7.318;2023-03-14T00:02:01;98629.67;;;10.21;95.04
47811;BME280;33575;52.600;7.318;2023-03-14T00:04:32;98634.60;;;10.23;94.54
47811;BME280;33575;52.600;7.318;2023-03-14T00:07:02;98616.82;;;10.25;94.72
47811;BME280;33575;52.600;7.318;2023-03-14T00:09:33;98614.35;;;10.26;95.08
47811;BME280;33575;52.600;7.318;2023-03-14T00:12:04;98617.17;;;10.25;95.19
47811;BME280;33575;52.600;7.318;2023-03-14T00:14:34;98614.04;;;10.32;94.64
47811;BME280;33575;52.600;7.318;2023-03-14T00:17:04;98622.47;;;10.38;94.29
47811;BME280;33575;52.600;7.318;2023-03-14T00:19:35;98629.15;;;10.37;94.38
47811;BME280;33575;52.600;7.318;2023-03-14T00:22:05;98625.18;;;10.31;95.43
47811;BME280;33575;52.600;7.318;2023-03-14T00:24:36;98622.67;;;10.32;95.20
47811;BME280;33575;52.600;7.318;2023-03-14T00:27:06;98614.99;;;10.32;95.64
47811;BME280;33575;52.600;7.318;2023-03-14T00:29:37;98606.61;;;10.25;96.13
47811;BME280;33575;52.600;7.318;2023-03-14T00:32:08;98607.41;;;10.46;94.60
47811;BME280;33575;52.600;7.318;2023-03-14T00:34:38;98606.55;;;10.42;95.08
47811;BME280;33575;52.600;7.318;2023-03-14T00:37:08;98594.18;;;10.29;96.32
47811;BME280;33575;52.600;7.318;2023-03-14T00:39:39;98593.91;;;10.40;95.97
47811;BME280;33575;52.600;7.318;2023-03-14T00:42:09;98597.89;;;10.35;96.72
47811;BME280;33575;52.600;7.318;2023-03-14T00:44:40;98595.77;;;10.34;96.06
47811;BME280;33575;52.600;7.318;2023-03-14T00:47:10;98586.98;;;10.28;96.44
47811;BME280;33575;52.600;7.318;2023-03-14T00:49:41;98576.62;;;10.23;96.92
47811;BME280;33575;52.600;7.318;2023-03-14T00:52:11;98572.14;;;10.27;96.04
47811;BME280;33575;52.600;7.318;2023-03-14T00:54:42;98563.96;;;10.30;95.30
47811;BME280;33575;52.600;7.318;2023-03-14T00:57:12;98561.16;;;10.08;96.57
47811;BME280;33575;52.600;7.318;2023-03-14T00:59:43;98551.10;;;10.15;96.09
47811;BME280;33575;52.600;7.318;2023-03-14T01:02:14;98544.93;;;10.25;95.27
47811;BME280;33575;52.600;7.318;2023-03-14T01:04:44;98529.72;;;10.23;95.14
47811;BME280;33575;52.600;7.318;2023-03-14T01:07:15;98525.09;;;10.31;94.41
47811;BME280;33575;52.600;7.318;2023-03-14T01:09:45;98526.38;;;10.36;95.83
47811;BME280;33575;52.600;7.318;2023-03-14T01:12:16;98531.04;;;10.42;94.94
47811;BME280;33575;52.600;7.318;2023-03-14T01:14:46;98538.26;;;10.41;94.35
47811;BME280;33575;52.600;7.318;2023-03-14T01:17:17;98545.19;;;10.39;94.24
47811;BME280;33575;52.600;7.318;2023-03-14T01:19:47;98547.84;;;10.39;93.65
47811;BME280;33575;52.600;7.318;2023-03-14T01:22:18;98550.58;;;10.22;95.26
47811;BME280;33575;52.600;7.318;2023-03-14T01:24:48;98548.81;;;10.30;94.07
47811;BME280;33575;52.600;7.318;2023-03-14T01:27:19;98554.31;;;10.30;93.82
47811;BME280;33575;52.600;7.318;2023-03-14T01:29:50;98553.57;;;10.34;93.51
47811;BME280;33575;52.600;7.318;2023-03-14T01:32:20;98552.24;;;10.32;94.62
47811;BME280;33575;52.600;7.318;2023-03-14T01:34:50;98548.81;;;10.32;94.16
47811;BME280;33575;52.600;7.318;2023-03-14T01:37:21;98548.38;;;10.35;94.09
47811;BME280;33575;52.600;7.318;2023-03-14T01:39:51;98549.21;;;10.45;93.13
47811;BME280;33575;52.600;7.318;2023-03-14T01:42:22;98543.10;;;10.36;94.00
47811;BME280;33575;52.600;7.318;2023-03-14T01:44:55;98541.57;;;10.35;93.42
47811;BME280;33575;52.600;7.318;2023-03-14T01:47:24;98540.82;;;10.20;95.53
47811;BME280;33575;52.600;7.318;2023-03-14T01:49:57;98552.27;;;10.35;94.97
47811;BME280;33575;52.600;7.318;2023-03-14T01:52:27;98548.69;;;10.44;94.88
47811;BME280;33575;52.600;7.318;2023-03-14T01:54:57;98550.71;;;10.47;93.41
47811;BME280;33575;52.600;7.318;2023-03-14T01:57:29;98547.66;;;10.29;94.28
47811;BME280;33575;52.600;7.318;2023-03-14T01:59:59;98549.31;;;10.30;93.36
47811;BME280;33575;52.600;7.318;2023-03-14T02:02:27;98558.93;;;10.13;95.39
47811;BME280;33575;52.600;7.318;2023-03-14T02:04:58;98552.70;;;10.16;95.69
47811;BME280;33575;52.600;7.318;2023-03-14T02:07:32;98559.65;;;10.13;95.72
47811;BME280;33575;52.600;7.318;2023-03-14T02:09:59;98564.68;;;10.13;95.55
47811;BME280;33575;52.600;7.318;2023-03-14T02:12:28;98552.99;;;9.95;96.32
47811;BME280;33575;52.600;7.318;2023-03-14T02:14:59;98554.91;;;9.95;96.54
47811;BME280;33575;52.600;7.318;2023-03-14T02:17:30;98547.19;;;9.99;96.06
47811;BME280;33575;52.600;7.318;2023-03-14T02:20:10;98540.57;;;9.89;97.68
47811;BME280;33575;52.600;7.318;2023-03-14T02:22:31;98538.35;;;9.78;98.00
47811;BME280;33575;52.600;7.318;2023-03-14T02:25:06;98538.82;;;9.76;98.86
47811;BME280;33575;52.600;7.318;2023-03-14T02:27:32;98545.77;;;9.76;97.79
47811;BME280;33575;52.600;7.318;2023-03-14T02:30:05;98545.58;;;9.84;97.20
47811;BME280;33575;52.600;7.318;2023-03-14T02:32:34;98549.18;;;9.85;97.33
47811;BME280;33575;52.600;7.318;2023-03-14T02:35:08;98546.04;;;9.84;97.59
47811;BME280;33575;52.600;7.318;2023-03-14T02:37:38;98542.07;;;9.70;98.57
47811;BME280;33575;52.600;7.318;2023-03-14T02:40:05;98546.65;;;9.81;97.79
47811;BME280;33575;52.600;7.318;2023-03-14T02:42:35;98547.03;;;9.84;97.10
47811;BME280;33575;52.600;7.318;2023-03-14T02:47:38;98546.83;;;9.67;98.16
47811;BME280;33575;52.600;7.318;2023-03-14T02:50:11;98544.03;;;9.69;98.53
47811;BME280;33575;52.600;7.318;2023-03-14T02:52:37;98539.07;;;9.67;98.61
47811;BME280;33575;52.600;7.318;2023-03-14T02:55:08;98543.07;;;9.70;97.64
47811;BME280;33575;52.600;7.318;2023-03-14T02:57:38;98547.59;;;9.66;97.61
47811;BME280;33575;52.600;7.318;2023-03-14T03:00:10;98549.34;;;9.61;97.44
47811;BME280;33575;52.600;7.318;2023-03-14T03:02:39;98548.32;;;9.69;96.41
47811;BME280;33575;52.600;7.318;2023-03-14T03:05:09;98549.28;;;9.59;96.73
47811;BME280;33575;52.600;7.318;2023-03-14T03:07:40;98544.67;;;9.59;96.25
47811;BME280;33575;52.600;7.318;2023-03-14T03:10:11;98544.10;;;9.73;95.59
47811;BME280;33575;52.600;7.318;2023-03-14T03:12:41;98542.92;;;9.62;95.96
47811;BME280;33575;52.600;7.318;2023-03-14T03:15:11;98543.79;;;9.60;96.36
47811;BME280;33575;52.600;7.318;2023-03-14T03:17:42;98545.72;;;9.54;97.58
47811;BME280;33575;52.600;7.318;2023-03-14T03:20:12;98551.73;;;9.56;97.06
47811;BME280;33575;52.600;7.318;2023-03-14T03:22:43;98557.03;;;9.47;98.70
47811;BME280;33575;52.600;7.318;2023-03-14T03:25:14;98558.71;;;9.28;98.62
47811;BME280;33575;52.600;7.318;2023-03-14T03:27:44;98556.16;;;9.28;99.56
47811;BME280;33575;52.600;7.318;2023-03-14T03:30:15;98563.86;;;9.20;100.00
47811;BME280;33575;52.600;7.318;2023-03-14T03:32:46;98557.14;;;9.07;100.00
47811;BME280;33575;52.600;7.318;2023-03-14T03:35:16;98565.39;;;9.17;98.71
47811;BME280;33575;52.600;7.318;2023-03-14T03:37:46;98560.80;;;9.09;99.35
47811;BME280;33575;52.600;7.318;2023-03-14T03:40:17;98560.20;;;9.10;98.51
47811;BME280;33575;52.600;7.318;2023-03-14T03:42:47;98558.44;;;9.12;98.01
47811;BME280;33575;52.600;7.318;2023-03-14T03:45:18;98561.42;;;9.03;99.39
47811;BME280;33575;52.600;7.318;2023-03-14T03:47:48;98560.59;;;9.03;98.54
47811;BME280;33575;52.600;7.318;2023-03-14T03:50:19;98558.93;;;9.01;98.13
47811;BME280;33575;52.600;7.318;2023-03-14T03:52:50;98566.15;;;9.02;96.80
47811;BME280;33575;52.600;7.318;2023-03-14T03:55:20;98558.86;;;8.92;97.93
47811;BME280;33575;52.600;7.318;2023-03-14T03:57:51;98562.53;;;8.89;98.22
47811;BME280;33575;52.600;7.318;2023-03-14T04:00:21;98560.18;;;8.99;97.10
47811;BME280;33575;52.600;7.318;2023-03-14T04:02:52;98555.31;;;8.82;98.31
47811;BME280;33575;52.600;7.318;2023-03-14T04:05:22;98559.41;;;8.83;98.62
47811;BME280;33575;52.600;7.318;2023-03-14T04:07:53;98552.92;;;8.92;96.70
47811;BME280;33575;52.600;7.318;2023-03-14T04:10:24;98552.02;;;8.86;97.10
47811;BME280;33575;52.600;7.318;2023-03-14T04:12:54;98560.16;;;8.84;96.16
47811;BME280;33575;52.600;7.318;2023-03-14T04:15:25;98556.60;;;8.80;97.07
47811;BME280;33575;52.600;7.318;2023-03-14T04:17:58;98557.26;;;8.84;96.66
47811;BME280;33575;52.600;7.318;2023-03-14T04:20:26;98559.99;;;8.73;97.97
47811;BME280;33575;52.600;7.318;2023-03-14T04:22:57;98548.68;;;8.81;97.09
47811;BME280;33575;52.600;7.318;2023-03-14T04:25:27;98545.64;;;8.76;97.27
47811;BME280;33575;52.600;7.318;2023-03-14T04:27:58;98542.37;;;8.64;97.12
47811;BME280;33575;52.600;7.318;2023-03-14T04:30:29;98543.12;;;8.68;97.54
47811;BME280;33575;52.600;7.318;2023-03-14T04:32:59;98545.92;;;8.67;97.25
47811;BME280;33575;52.600;7.318;2023-03-14T04:35:30;98544.00;;;8.65;97.01
47811;BME280;33575;52.600;7.318;2023-03-14T04:38:00;98542.95;;;8.59;97.26
47811;BME280;33575;52.600;7.318;2023-03-14T04:40:31;98545.14;;;8.56;97.27
47811;BME280;33575;52.600;7.318;2023-03-14T04:43:01;98536.73;;;8.56;97.27
47811;BME280;33575;52.600;7.318;2023-03-14T04:45:32;98527.60;;;8.54;96.30
47811;BME280;33575;52.600;7.318;2023-03-14T04:48:03;98524.82;;;8.46;97.63
47811;BME280;33575;52.600;7.318;2023-03-14T04:50:33;98527.31;;;8.37;98.21
47811;BME280;33575;52.600;7.318;2023-03-14T04:53:04;98515.88;;;8.25;97.86
47811;BME280;33575;52.600;7.318;2023-03-14T04:55:34;98520.57;;;8.26;98.68
47811;BME280;33575;52.600;7.318;2023-03-14T04:58:05;98523.12;;;8.29;98.37
47811;BME280;33575;52.600;7.318;2023-03-14T05:00:35;98526.00;;;8.38;97.29
47811;BME280;33575;52.600;7.318;2023-03-14T05:03:06;98524.68;;;8.24;99.06
47811;BME280;33575;52.600;7.318;2023-03-14T05:05:36;98526.25;;;8.22;98.62
47811;BME280;33575;52.600;7.318;2023-03-14T05:08:07;98526.93;;;8.26;98.52
47811;BME280;33575;52.600;7.318;2023-03-14T05:10:38;98521.98;;;8.30;98.58
47811;BME280;33575;52.600;7.318;2023-03-14T05:13:08;98515.21;;;8.17;99.90
47811;BME280;33575;52.600;7.318;2023-03-14T05:15:39;98509.80;;;8.05;100.00
47811;BME280;33575;52.600;7.318;2023-03-14T05:18:09;98513.53;;;8.09;100.00
47811;BME280;33575;52.600;7.318;2023-03-14T05:20:40;98510.24;;;8.11;100.00
47811;BME280;33575;52.600;7.318;2023-03-14T05:23:11;98503.86;;;8.19;100.00
47811;BME280;33575;52.600;7.318;2023-03-14T05:25:43;98503.60;;;8.29;100.00
47811;BME280;33575;52.600;7.318;2023-03-14T05:28:12;98501.65;;;8.28;100.00
47811;BME280;33575;52.600;7.318;2023-03-14T05:30:42;98499.51;;;8.36;100.00
47811;BME280;33575;52.600;7.318;2023-03-14T05:33:13;98503.92;;;8.40;99.64
47811;BME280;33575;52.600;7.318;2023-03-14T05:35:44;98505.92;;;8.40;99.77
47811;BME280;33575;52.600;7.318;2023-03-14T05:38:14;98507.32;;;8.44;99.36
47811;BME280;33575;52.600;7.318;2023-03-14T05:40:45;98503.78;;;8.42;99.07
47811;BME280;33575;52.600;7.318;2023-03-14T05:43:15;98497.39;;;8.45;98.64
47811;BME280;33575;52.600;7.318;2023-03-14T05:45:46;98496.87;;;8.43;99.03
47811;BME280;33575;52.600;7.318;2023-03-14T05:48:17;98497.44;;;8.40;99.18
47811;BME280;33575;52.600;7.318;2023-03-14T05:50:47;98498.22;;;8.36;99.75
47811;BME280;33575;52.600;7.318;2023-03-14T05:53:18;98497.56;;;8.41;98.40
47811;BME280;33575;52.600;7.318;2023-03-14T05:55:51;98484.54;;;8.11;100.00
47811;BME280;33575;52.600;7.318;2023-03-14T05:58:19;98490.67;;;8.22;100.00
47811;BME280;33575;52.600;7.318;2023-03-14T06:00:50;98488.47;;;8.27;99.85
47811;BME280;33575;52.600;7.318;2023-03-14T06:03:20;98483.29;;;8.20;100.00
47811;BME280;33575;52.600;7.318;2023-03-14T06:05:51;98476.00;;;8.36;100.00
47811;BME280;33575;52.600;7.318;2023-03-14T06:08:21;98483.04;;;8.45;98.63
47811;BME280;33575;52.600;7.318;2023-03-14T06:10:52;98483.60;;;8.33;100.00
47811;BME280;33575;52.600;7.318;2023-03-14T06:13:22;98479.74;;;8.38;99.56
47811;BME280;33575;52.600;7.318;2023-03-14T06:15:53;98477.04;;;8.37;99.59
47811;BME280;33575;52.600;7.318;2023-03-14T06:18:24;98473.36;;;8.34;99.71
47811;BME280;33575;52.600;7.318;2023-03-14T06:20:55;98466.38;;;8.30;99.10
47811;BME280;33575;52.600;7.318;2023-03-14T06:23:25;98472.38;;;8.39;99.68
47811;BME280;33575;52.600;7.318;2023-03-14T06:25:55;98469.50;;;8.34;99.95
47811;BME280;33575;52.600;7.318;2023-03-14T06:28:27;98480.06;;;8.21;100.00
47811;BME280;33575;52.600;7.318;2023-03-14T06:30:58;98475.85;;;8.31;100.00
47811;BME280;33575;52.600;7.318;2023-03-14T06:33:27;98477.13;;;8.32;100.00
47811;BME280;33575;52.600;7.318;2023-03-14T06:35:58;98475.04;;;8.38;99.26
47811;BME280;33575;52.600;7.318;2023-03-14T06:38:28;98477.33;;;8.39;99.49
47811;BME280;33575;52.600;7.318;2023-03-14T06:41:03;98478.31;;;8.50;98.94
47811;BME280;33575;52.600;7.318;2023-03-14T06:43:29;98477.71;;;8.55;98.50
47811;BME280;33575;52.600;7.318;2023-03-14T06:46:00;98477.22;;;8.48;99.57
47811;BME280;33575;52.600;7.318;2023-03-14T06:48:30;98485.65;;;8.57;99.35
47811;BME280;33575;52.600;7.318;2023-03-14T06:51:01;98482.32;;;8.43;100.00
47811;BME280;33575;52.600;7.318;2023-03-14T06:53:32;98486.39;;;8.64;98.58
47811;BME280;33575;52.600;7.318;2023-03-14T06:56:02;98492.69;;;8.70;98.63
47811;BME280;33575;52.600;7.318;2023-03-14T06:58:33;98494.37;;;8.73;98.68
47811;BME280;33575;52.600;7.318;2023-03-14T07:01:04;98503.55;;;8.79;98.62
47811;BME280;33575;52.600;7.318;2023-03-14T07:03:34;98502.72;;;8.87;98.04
47811;BME280;33575;52.600;7.318;2023-03-14T07:06:05;98508.57;;;8.86;98.86
47811;BME280;33575;52.600;7.318;2023-03-14T07:08:35;98511.52;;;8.83;98.04
47811;BME280;33575;52.600;7.318;2023-03-14T07:11:06;98515.78;;;8.93;97.91
47811;BME280;33575;52.600;7.318;2023-03-14T07:13:36;98522.14;;;8.95;97.52
47811;BME280;33575;52.600;7.318;2023-03-14T07:16:08;98520.03;;;8.84;98.50
47811;BME280;33575;52.600;7.318;2023-03-14T07:18:37;98523.06;;;8.86;98.68
47811;BME280;33575;52.600;7.318;2023-03-14T07:21:08;98530.07;;;8.89;98.49
47811;BME280;33575;52.600;7.318;2023-03-14T07:23:38;98531.04;;;8.90;99.97
47811;BME280;33575;52.600;7.318;2023-03-14T07:26:09;98528.87;;;8.80;100.00
47811;BME280;33575;52.600;7.318;2023-03-14T07:28:39;98524.39;;;8.97;98.51
47811;BME280;33575;52.600;7.318;2023-03-14T07:31:10;98534.46;;;8.82;99.90
47811;BME280;33575;52.600;7.318;2023-03-14T07:33:41;98533.81;;;8.85;99.74
47811;BME280;33575;52.600;7.318;2023-03-14T07:36:11;98533.92;;;8.92;99.00
47811;BME280;33575;52.600;7.318;2023-03-14T07:38:42;98529.29;;;8.91;98.99
47811;BME280;33575;52.600;7.318;2023-03-14T07:41:13;98536.92;;;8.95;98.21
47811;BME280;33575;52.600;7.318;2023-03-14T07:43:43;98540.60;;;8.77;100.00
47811;BME280;33575;52.600;7.318;2023-03-14T07:46:13;98542.07;;;8.85;100.00
47811;BME280;33575;52.600;7.318;2023-03-14T07:48:44;98538.57;;;8.89;99.81
47811;BME280;33575;52.600;7.318;2023-03-14T07:51:14;98538.77;;;8.93;100.00
47811;BME280;33575;52.600;7.318;2023-03-14T07:53:45;98542.64;;;9.00;99.34
47811;BME280;33575;52.600;7.318;2023-03-14T07:56:16;98538.77;;;8.93;100.00
47811;BME280;33575;52.600;7.318;2023-03-14T07:58:46;98544.96;;;8.97;100.00
47811;BME280;33575;52.600;7.318;2023-03-14T08:01:17;98545.08;;;9.01;99.71
47811;BME280;33575;52.600;7.318;2023-03-14T08:03:47;98540.31;;;9.01;99.95
47811;BME280;33575;52.600;7.318;2023-03-14T08:06:18;98541.88;;;8.95;100.00
47811;BME280;33575;52.600;7.318;2023-03-14T08:08:48;98543.90;;;8.90;100.00
47811;BME280;33575;52.600;7.318;2023-03-14T08:11:19;98546.47;;;8.99;99.91
47811;BME280;33575;52.600;7.318;2023-03-14T08:13:49;98552.84;;;9.02;100.00
47811;BME280;33575;52.600;7.318;2023-03-14T08:16:20;98556.02;;;9.06;100.00
47811;BME280;33575;52.600;7.318;2023-03-14T08:18:51;98558.08;;;9.10;99.72
47811;BME280;33575;52.600;7.318;2023-03-14T08:21:21;98552.94;;;9.00;100.00
47811;BME280;33575;52.600;7.318;2023-03-14T08:23:52;98561.88;;;9.00;100.00
47811;BME280;33575;52.600;7.318;2023-03-14T08:26:22;98563.55;;;9.05;100.00
47811;BME280;33575;52.600;7.318;2023-03-14T08:28:53;98627.30;;;9.17;100.00
47811;BME280;33575;52.600;7.318;2023-03-14T08:31:23;98636.57;;;8.84;100.00
47811;BME280;33575;52.600;7.318;2023-03-14T08:33:54;98649.62;;;8.24;100.00
47811;BME280;33575;52.600;7.318;2023-03-14T08:36:25;98655.48;;;8.39;100.00
47811;BME280;33575;52.600;7.318;2023-03-14T08:38:55;98661.09;;;8.18;100.00
47811;BME280;33575;52.600;7.318;2023-03-14T08:41:25;98700.18;;;8.06;100.00
47811;BME280;33575;52.600;7.318;2023-03-14T08:43:56;98718.95;;;6.71;100.00
47811;BME280;33575;52.600;7.318;2023-03-14T08:46:27;98713.54;;;6.06;100.00
47811;BME280;33575;52.600;7.318;2023-03-14T08:48:57;98719.21;;;5.76;100.00
47811;BME280;33575;52.600;7.318;2023-03-14T08:51:28;98736.16;;;5.12;100.00
47811;BME280;33575;52.600;7.318;2023-03-14T08:53:59;98749.74;;;5.16;100.00
47811;BME280;33575;52.600;7.318;2023-03-14T08:56:29;98758.57;;;4.81;100.00
47811;BME280;33575;52.600;7.318;2023-03-14T08:59:00;98767.46;;;4.65;100.00
47811;BME280;33575;52.600;7.318;2023-03-14T09:01:31;98799.27;;;4.14;100.00
47811;BME280;33575;52.600;7.318;2023-03-14T09:04:01;98808.44;;;4.13;100.00
47811;BME280;33575;52.600;7.318;2023-03-14T09:06:32;98825.17;;;3.91;100.00
47811;BME280;33575;52.600;7.318;2023-03-14T09:09:03;98840.29;;;3.59;100.00
47811;BME280;33575;52.600;7.318;2023-03-14T09:11:34;98860.54;;;3.54;100.00
47811;BME280;33575;52.600;7.318;2023-03-14T09:14:04;98874.71;;;3.44;100.00
47811;BME280;33575;52.600;7.318;2023-03-14T09:16:35;98891.24;;;3.18;100.00
47811;BME280;33575;52.600;7.318;2023-03-14T09:19:06;98898.74;;;2.99;100.00
47811;BME280;33575;52.600;7.318;2023-03-14T09:21:37;98919.84;;;2.69;100.00
47811;BME280;33575;52.600;7.318;2023-03-14T09:24:07;98930.25;;;2.43;100.00
47811;BME280;33575;52.600;7.318;2023-03-14T09:26:38;98947.60;;;2.42;100.00
47811;BME280;33575;52.600;7.318;2023-03-14T09:29:09;98961.09;;;2.31;100.00
47811;BME280;33575;52.600;7.318;2023-03-14T09:31:40;98985.97;;;2.29;100.00
47811;BME280;33575;52.600;7.318;2023-03-14T09:34:10;98985.19;;;2.06;100.00
47811;BME280;33575;52.600;7.318;2023-03-14T09:36:41;98986.34;;;2.17;100.00
47811;BME280;33575;52.600;7.318;2023-03-14T09:39:12;98992.36;;;2.14;100.00
47811;BME280;33575;52.600;7.318;2023-03-14T09:41:44;99006.96;;;2.26;100.00
47811;BME280;33575;52.600;7.318;2023-03-14T09:44:16;99017.00;;;2.14;100.00
47811;BME280;33575;52.600;7.318;2023-03-14T09:46:47;99016.21;;;2.13;100.00
47811;BME280;33575;52.600;7.318;2023-03-14T09:49:19;99037.40;;;2.19;100.00
47811;BME280;33575;52.600;7.318;2023-03-14T09:51:48;99047.41;;;1.96;100.00
47811;BME280;33575;52.600;7.318;2023-03-14T09:54:26;99047.94;;;1.92;100.00
47811;BME280;33575;52.600;7.318;2023-03-14T09:56:47;99061.83;;;2.15;100.00
47811;BME280;33575;52.600;7.318;2023-03-14T09:59:19;99068.86;;;2.32;100.00
47811;BME280;33575;52.600;7.318;2023-03-14T10:01:50;99072.96;;;2.48;100.00
47811;BME280;33575;52.600;7.318;2023-03-14T10:04:22;99081.48;;;2.53;100.00
47811;BME280;33575;52.600;7.318;2023-03-14T10:06:51;99094.90;;;2.65;100.00
47811;BME280;33575;52.600;7.318;2023-03-14T10:09:23;99107.48;;;2.57;100.00
47811;BME280;33575;52.600;7.318;2023-03-14T10:11:54;99111.61;;;2.71;100.00
47811;BME280;33575;52.600;7.318;2023-03-14T10:14:31;99130.24;;;2.79;100.00
47811;BME280;33575;52.600;7.318;2023-03-14T10:16:54;99137.65;;;2.92;100.00
47811;BME280;33575;52.600;7.318;2023-03-14T10:19:24;99143.98;;;3.03;100.00
47811;BME280;33575;52.600;7.318;2023-03-14T10:21:55;99152.02;;;3.00;100.00
47811;BME280;33575;52.600;7.318;2023-03-14T10:24:28;99162.42;;;3.00;100.00
47811;BME280;33575;52.600;7.318;2023-03-14T10:27:00;99167.44;;;2.75;100.00
47811;BME280;33575;52.600;7.318;2023-03-14T10:29:31;99177.57;;;2.93;100.00
47811;BME280;33575;52.600;7.318;2023-03-14T10:32:00;99177.10;;;3.17;100.00
47811;BME280;33575;52.600;7.318;2023-03-14T10:34:31;99186.69;;;3.46;100.00
47811;BME280;33575;52.600;7.318;2023-03-14T10:37:05;99201.88;;;3.28;100.00
47811;BME280;33575;52.600;7.318;2023-03-14T10:39:37;99207.14;;;3.46;100.00
47811;BME280;33575;52.600;7.318;2023-03-14T10:42:04;99214.59;;;3.50;100.00
47811;BME280;33575;52.600;7.318;2023-03-14T10:44:34;99225.31;;;3.57;100.00
47811;BME280;33575;52.600;7.318;2023-03-14T10:47:04;99231.97;;;3.59;100.00
47811;BME280;33575;52.600;7.318;2023-03-14T10:49:35;99235.82;;;3.75;100.00
47811;BME280;33575;52.600;7.318;2023-03-14T10:52:15;99240.31;;;3.76;100.00
47811;BME280;33575;52.600;7.318;2023-03-14T10:54:35;99251.36;;;3.74;100.00
47811;BME280;33575;52.600;7.318;2023-03-14T10:57:06;99261.56;;;3.86;100.00
47811;BME280;33575;52.600;7.318;2023-03-14T10:59:39;99273.30;;;3.87;100.00
47811;BME280;33575;52.600;7.318;2023-03-14T11:02:18;99278.79;;;3.90;100.00
47811;BME280;33575;52.600;7.318;2023-03-14T11:04:50;99291.02;;;4.00;100.00
47811;BME280;33575;52.600;7.318;2023-03-14T11:07:14;99302.64;;;4.17;99.55
47811;BME280;33575;52.600;7.318;2023-03-14T11:09:44;99318.54;;;4.17;100.00
47811;BME280;33575;52.600;7.318;2023-03-14T11:12:23;99328.14;;;4.10;99.45
47811;BME280;33575;52.600;7.318;2023-03-14T11:14:44;99349.73;;;3.80;99.93
47811;BME280;33575;52.600;7.318;2023-03-14T11:17:16;99371.58;;;3.66;100.00
47811;BME280;33575;52.600;7.318;2023-03-14T11:19:52;99375.55;;;3.40;100.00
47811;BME280;33575;52.600;7.318;2023-03-14T11:22:21;99387.55;;;3.34;100.00
47811;BME280;33575;52.600;7.318;2023-03-14T11:24:55;99393.81;;;3.33;100.00
47811;BME280;33575;52.600;7.318;2023-03-14T11:27:18;99391.19;;;3.20;100.00
47811;BME280;33575;52.600;7.318;2023-03-14T11:29:54;99399.68;;;3.26;100.00
47811;BME280;33575;52.600;7.318;2023-03-14T11:32:32;99413.35;;;3.14;100.00
47811;BME280;33575;52.600;7.318;2023-03-14T11:34:51;99412.42;;;3.31;100.00
47811;BME280;33575;52.600;7.318;2023-03-14T11:37:23;99429.45;;;3.14;100.00
47811;BME280;33575;52.600;7.318;2023-03-14T11:39:56;99438.09;;;3.17;100.00
47811;BME280;33575;52.600;7.318;2023-03-14T11:42:19;99450.64;;;3.23;100.00
47811;BME280;33575;52.600;7.318;2023-03-14T11:44:49;99444.20;;;3.44;100.00
47811;BME280;33575;52.600;7.318;2023-03-14T11:47:23;99465.15;;;3.19;99.70
47811;BME280;33575;52.600;7.318;2023-03-14T11:49:53;99463.26;;;3.37;99.45
47811;BME280;33575;52.600;7.318;2023-03-14T11:52:25;99474.54;;;3.46;100.00
47811;BME280;33575;52.600;7.318;2023-03-14T11:54:55;99494.93;;;3.57;98.02
47811;BME280;33575;52.600;7.318;2023-03-14T11:57:22;99484.72;;;3.49;91.43
47811;BME280;33575;52.600;7.318;2023-03-14T11:59:57;99493.17;;;3.54;90.71
47811;BME280;33575;52.600;7.318;2023-03-14T12:02:27;99504.15;;;3.57;90.48
47811;BME280;33575;52.600;7.318;2023-03-14T12:07:31;99514.71;;;3.79;90.30
47811;BME280;33575;52.600;7.318;2023-03-14T12:09:56;99539.59;;;3.63;90.42
47811;BME280;33575;52.600;7.318;2023-03-14T12:12:27;99549.76;;;3.49;84.84
47811;BME280;33575;52.600;7.318;2023-03-14T12:14:58;99545.05;;;3.62;85.05
47811;BME280;33575;52.600;7.318;2023-03-14T12:17:34;99547.56;;;3.68;83.40
47811;BME280;33575;52.600;7.318;2023-03-14T12:20:02;99552.45;;;3.79;86.99
47811;BME280;33575;52.600;7.318;2023-03-14T12:22:30;99552.60;;;4.12;85.54
47811;BME280;33575;52.600;7.318;2023-03-14T12:25:04;99566.07;;;4.08;81.57
47811;BME280;33575;52.600;7.318;2023-03-14T12:27:42;99580.05;;;4.16;83.12
47811;BME280;33575;52.600;7.318;2023-03-14T12:30:16;99592.94;;;3.89;81.64
47811;BME280;33575;52.600;7.318;2023-03-14T12:32:32;99604.24;;;3.84;80.83
47811;BME280;33575;52.600;7.318;2023-03-14T12:35:23;99612.05;;;3.63;82.09
47811;BME280;33575;52.600;7.318;2023-03-14T12:37:36;99624.65;;;3.73;80.11
47811;BME280;33575;52.600;7.318;2023-03-14T12:40:15;99636.67;;;3.81;81.09
47811;BME280;33575;52.600;7.318;2023-03-14T12:42:45;99627.93;;;3.84;76.38
47811;BME280;33575;52.600;7.318;2023-03-14T12:45:14;99643.92;;;4.09;78.25
47811;BME280;33575;52.600;7.318;2023-03-14T12:50:12;99645.96;;;4.08;75.95
47811;BME280;33575;52.600;7.318;2023-03-14T12:52:44;99657.06;;;4.31;78.74
47811;BME280;33575;52.600;7.318;2023-03-14T12:55:12;99661.84;;;3.99;75.74
47811;BME280;33575;52.600;7.318;2023-03-14T12:57:43;99663.08;;;3.96;76.59
47811;BME280;33575;52.600;7.318;2023-03-14T13:00:18;99677.80;;;3.91;75.70
47811;BME280;33575;52.600;7.318;2023-03-14T13:02:42;99698.22;;;4.07;77.40
47811;BME280;33575;52.600;7.318;2023-03-14T13:05:16;99695.54;;;3.98;73.16
47811;BME280;33575;52.600;7.318;2023-03-14T13:10:18;99707.57;;;3.83;74.52
47811;BME280;33575;52.600;7.318;2023-03-14T13:12:48;99709.56;;;3.90;73.52
47811;BME280;33575;52.600;7.318;2023-03-14T13:15:20;99708.73;;;3.92;73.71
47811;BME280;33575;52.600;7.318;2023-03-14T13:17:46;99718.27;;;4.11;71.89
47811;BME280;33575;52.600;7.318;2023-03-14T13:20:22;99728.32;;;4.28;71.80
47811;BME280;33575;52.600;7.318;2023-03-14T13:22:48;99731.41;;;4.43;72.68
47811;BME280;33575;52.600;7.318;2023-03-14T13:25:17;99735.56;;;4.76;74.11
47811;BME280;33575;52.600;7.318;2023-03-14T13:27:48;99739.90;;;4.85;70.85
47811;BME280;33575;52.600;7.318;2023-03-14T13:30:22;99749.35;;;4.58;69.25
47811;BME280;33575;52.600;7.318;2023-03-14T13:32:51;99762.33;;;4.89;73.76